Time;durP1;ratioP1;P1;durP2;ratioP2;P2;SDS_P1;SDS_P2;PMS_P1;PMS_P2;Temp;Humidity;BMP_temperature;BMP_pressure;BME280_temperature;BME280_humidity;BME280_pressure;Samples;Min_cycle;Max_cycle;Signal;HPM_P1;HPM_P2
2022/11/04 00:01:40;;;;;;;1.05;0.95;;;;;;;12.36;74.64;98746.59;4973390;28;20206;-75
2022/11/04 00:04:06;;;;;;;2.67;1.20;;;;;;;12.37;74.41;98742.19;4976296;28;20228;-75
2022/11/04 00:06:32;;;;;;;1.10;1.00;;;;;;;12.38;74.39;98736.78;4979149;28;20255;-75
2022/11/04 00:08:58;;;;;;;0.90;0.80;;;;;;;12.37;74.24;98740.38;4978333;28;21241;-75
2022/11/04 00:14:11;;;;;;;1.85;1.00;;;;;;;12.36;74.17;98745.75;4974578;28;20241;-75
2022/11/04 00:19:21;;;;;;;1.23;0.90;;;;;;;12.36;73.98;98748.41;4975850;28;20232;-75
2022/11/04 00:29:56;;;;;;;3.15;1.10;;;;;;;12.34;74.14;98760.84;4977185;28;20574;-75
2022/11/04 00:35:07;;;;;;;1.08;0.98;;;;;;;12.34;74.24;98752.94;4973598;28;20578;-76
2022/11/04 00:37:40;;;;;;;1.27;1.17;;;;;;;12.33;74.31;98759.19;4977711;28;20220;-75
2022/11/04 00:40:08;;;;;;;1.85;1.00;;;;;;;12.32;74.27;98744.38;4973323;28;20465;-75
2022/11/04 00:42:34;;;;;;;1.63;1.02;;;;;;;12.27;74.16;98736.84;4980226;28;20311;-74
2022/11/04 00:45:00;;;;;;;1.43;1.00;;;;;;;12.26;74.42;98750.13;4992976;28;20595;-75
2022/11/04 00:47:26;;;;;;;1.77;1.07;;;;;;;12.25;74.39;98749.31;4996363;28;21284;-75
2022/11/04 00:49:51;;;;;;;4.43;1.60;;;;;;;12.24;74.42;98752.91;4999414;28;20344;-75
2022/11/04 00:52:17;;;;;;;1.20;0.90;;;;;;;12.22;74.46;98746.94;4999020;28;20457;-75
2022/11/04 00:54:43;;;;;;;1.67;1.00;;;;;;;12.21;74.48;98744.44;4996145;28;20582;-75
2022/11/04 00:57:09;;;;;;;0.90;0.80;;;;;;;12.15;74.66;98744.00;4998198;28;20473;-75
2022/11/04 00:59:35;;;;;;;1.55;1.40;;;;;;;12.15;74.65;98741.38;4997208;28;20209;-75
2022/11/04 01:02:00;;;;;;;1.27;0.93;;;;;;;12.16;74.70;98744.81;4998218;28;20477;-74
2022/11/04 01:04:26;;;;;;;1.57;1.10;;;;;;;12.13;74.81;98745.91;4996835;28;20778;-75
2022/11/04 01:06:52;;;;;;;1.30;1.10;;;;;;;12.10;74.85;98747.97;4995681;28;20227;-74
2022/11/04 01:09:17;;;;;;;1.40;0.93;;;;;;;12.07;74.75;98748.22;5000242;28;20214;-74
2022/11/04 01:11:43;;;;;;;1.60;0.87;;;;;;;12.05;74.83;98747.53;4999675;28;20465;-74
2022/11/04 01:14:08;;;;;;;1.10;1.00;;;;;;;12.01;74.73;98746.09;4997497;28;20227;-74
2022/11/04 01:16:34;;;;;;;1.67;0.90;;;;;;;11.97;74.82;98737.63;4999100;28;20206;-75
2022/11/04 01:18:59;;;;;;;1.70;0.93;;;;;;;11.95;74.77;98750.06;5000627;28;20206;-74
2022/11/04 01:21:25;;;;;;;1.10;0.90;;;;;;;11.93;74.62;98749.34;4997131;28;20211;-74
2022/11/04 01:23:50;;;;;;;1.13;0.90;;;;;;;11.89;74.64;98745.31;5000356;28;20242;-75
2022/11/04 01:26:19;;;;;;;1.93;1.40;;;;;;;11.87;74.84;98750.69;4997436;28;20207;-74
2022/11/04 01:28:45;;;;;;;1.00;0.90;;;;;;;11.82;74.89;98757.28;4997952;28;20229;-74
2022/11/04 01:31:14;;;;;;;1.67;1.30;;;;;;;11.82;74.79;98755.47;4999400;28;20304;-75
2022/11/04 01:33:39;;;;;;;1.77;0.93;;;;;;;11.80;74.83;98756.56;4998036;28;20476;-74
2022/11/04 01:36:06;;;;;;;1.30;1.00;;;;;;;11.79;74.63;98761.00;4997291;28;20257;-74
2022/11/04 01:38:32;;;;;;;2.33;1.10;;;;;;;11.78;74.68;98755.88;4997876;28;20198;-74
2022/11/04 01:40:58;;;;;;;2.40;1.00;;;;;;;11.76;74.47;98753.34;4998760;28;20735;-74
2022/11/04 01:43:42;;;;;;;2.20;1.00;;;;;;;11.74;74.36;98747.38;4996270;28;20239;-74
2022/11/04 01:46:14;;;;;;;1.90;0.90;;;;;;;11.72;74.62;98750.16;4998315;28;20659;-74
2022/11/04 01:48:39;;;;;;;1.48;0.88;;;;;;;11.71;74.37;98747.63;4998496;28;20233;-74
2022/11/04 01:51:05;;;;;;;1.43;1.27;;;;;;;11.70;74.50;98738.91;4999218;28;20211;-74
2022/11/04 01:53:38;;;;;;;1.08;0.77;;;;;;;11.68;74.40;98737.38;4997389;28;20336;-74
2022/11/04 01:56:10;;;;;;;1.05;0.90;;;;;;;11.67;74.53;98728.66;4995435;28;20209;-74
2022/11/04 01:58:39;;;;;;;5.85;0.93;;;;;;;11.66;74.26;98732.22;4995551;28;20542;-75
2022/11/04 02:01:07;;;;;;;5.43;1.00;;;;;;;11.64;74.24;98726.28;4996278;28;20209;-74
2022/11/04 02:03:37;;;;;;;2.40;1.00;;;;;;;11.65;74.35;98720.03;4997345;28;20460;-74
2022/11/04 02:06:04;;;;;;;1.00;0.85;;;;;;;11.63;74.29;98711.44;4993294;28;20249;-74
2022/11/04 02:08:30;;;;;;;1.88;1.00;;;;;;;11.62;74.21;98706.31;4999882;28;20230;-74
2022/11/04 02:11:01;;;;;;;1.60;0.90;;;;;;;11.59;74.36;98694.25;4994623;28;20857;-74
2022/11/04 02:13:29;;;;;;;6.78;1.35;;;;;;;11.58;74.22;98689.94;4995893;28;20228;-73
2022/11/04 02:16:15;;;;;;;1.20;0.90;;;;;;;11.58;74.23;98697.81;4999615;28;20262;-74
2022/11/04 02:19:11;;;;;;;1.30;1.05;;;;;;;11.55;74.22;98698.06;4997382;28;20698;-74
2022/11/04 02:22:15;;;;;;;1.02;0.93;;;;;;;11.55;74.36;98718.28;4995349;28;20586;-74
2022/11/04 02:24:59;;;;;;;1.15;0.95;;;;;;;11.52;74.22;98716.75;4984361;28;20235;-74
2022/11/04 02:27:43;;;;;;;1.17;0.90;;;;;;;11.52;74.22;98716.75;4995609;28;20293;-74
2022/11/04 02:30:19;;;;;;;4.43;1.30;;;;;;;11.49;74.23;98714.38;5013516;28;20233;-74
2022/11/04 02:33:09;;;;;;;1.35;0.80;;;;;;;11.47;74.27;98695.25;4996834;28;20297;-74
2022/11/04 02:35:48;;;;;;;1.20;0.80;;;;;;;11.49;74.08;98714.38;4999458;28;20211;-74
2022/11/04 02:38:19;;;;;;;1.23;0.90;;;;;;;11.48;74.02;98712.72;4993819;28;20194;-74
2022/11/04 02:41:13;;;;;;;1.20;0.90;;;;;;;11.44;74.12;98708.66;4997260;28;20230;-75
2022/11/04 02:44:18;;;;;;;1.33;0.90;;;;;;;11.43;74.11;98702.56;4997602;28;20269;-74
2022/11/04 02:46:51;;;;;;;2.38;1.02;;;;;;;11.42;73.97;98700.91;4997092;28;20213;-74
2022/11/04 02:49:25;;;;;;;1.00;0.88;;;;;;;11.43;73.93;98699.09;4997558;28;20336;-74
2022/11/04 02:52:01;;;;;;;3.05;1.00;;;;;;;11.42;73.88;98703.53;4993928;28;20294;-74
2022/11/04 02:54:33;;;;;;;4.78;1.25;;;;;;;11.39;74.11;98714.28;4997658;28;20647;-75
2022/11/04 02:57:02;;;;;;;1.30;0.95;;;;;;;11.40;73.99;98707.25;4996680;28;20207;-74
2022/11/04 02:59:46;;;;;;;0.77;0.70;;;;;;;11.40;74.09;98701.97;4995168;28;20206;-74
2022/11/04 03:02:21;;;;;;;1.10;1.00;;;;;;;11.40;73.93;98694.94;4994092;28;20328;-74
2022/11/04 03:04:50;;;;;;;2.28;0.80;;;;;;;11.41;73.80;98701.00;4996965;28;20705;-74
2022/11/04 03:07:21;;;;;;;1.80;0.85;;;;;;;11.42;73.83;98694.78;4994019;28;20225;-74
2022/11/04 03:09:52;;;;;;;1.50;1.40;;;;;;;11.45;73.75;98700.66;4995752;28;20243;-74
2022/11/04 03:12:24;;;;;;;0.93;0.88;;;;;;;11.48;73.71;98702.19;4993512;28;20213;-73
2022/11/04 03:15:05;;;;;;;2.05;1.00;;;;;;;11.48;73.64;98695.13;4998268;28;20234;-74
2022/11/04 03:17:49;;;;;;;1.80;1.13;;;;;;;11.50;73.50;98685.34;4994897;28;20593;-74
2022/11/04 03:20:22;;;;;;;1.20;1.10;;;;;;;11.51;73.29;98673.84;4995691;28;20482;-74
2022/11/04 03:22:48;;;;;;;1.38;0.90;;;;;;;11.51;73.14;98673.00;4996774;28;20203;-74
2022/11/04 03:25:14;;;;;;;1.97;1.20;;;;;;;11.50;73.24;98687.09;4996866;28;20281;-74
2022/11/04 03:28:00;;;;;;;4.22;0.95;;;;;;;11.50;73.17;98679.22;4993030;28;21728;-74
2022/11/04 03:30:34;;;;;;;1.23;1.05;;;;;;;11.48;73.21;98674.09;4994141;28;20229;-74
2022/11/04 03:33:14;;;;;;;4.05;0.90;;;;;;;11.47;73.01;98666.31;4997442;28;20428;-74
2022/11/04 03:35:40;;;;;;;1.30;0.88;;;;;;;11.45;73.17;98661.19;4998940;28;20272;-74
2022/11/04 03:38:05;;;;;;;3.43;1.33;;;;;;;11.42;73.07;98665.84;4991999;28;20286;-74
2022/11/04 03:40:31;;;;;;;1.40;1.00;;;;;;;11.40;73.17;98667.81;4996889;28;21029;-74
2022/11/04 03:43:06;;;;;;;1.40;0.97;;;;;;;11.38;73.31;98651.31;4997901;28;20217;-75
2022/11/04 03:45:31;;;;;;;1.90;1.10;;;;;;;11.35;73.28;98657.66;4997279;28;20218;-73
2022/11/04 03:47:57;;;;;;;1.73;1.13;;;;;;;11.32;73.41;98672.84;4994095;28;20713;-74
2022/11/04 03:50:29;;;;;;;2.43;1.00;;;;;;;11.30;73.26;98665.09;4995475;28;20829;-74
2022/11/04 03:52:57;;;;;;;1.20;0.80;;;;;;;11.26;73.21;98651.38;4997315;28;20195;-74
2022/11/04 03:55:49;;;;;;;2.08;1.10;;;;;;;11.24;73.28;98655.06;4997813;28;20593;-74
2022/11/04 03:58:26;;;;;;;3.22;1.10;;;;;;;11.21;73.25;98666.66;5001955;28;20675;-74
2022/11/04 04:01:19;;;;;;;1.55;1.00;;;;;;;11.21;73.28;98664.03;4995304;28;20215;-74
2022/11/04 04:04:13;;;;;;;0.95;0.60;;;;;;;11.20;73.16;98662.34;4996820;28;20229;-74
2022/11/04 04:06:42;;;;;;;1.75;1.02;;;;;;;11.20;73.26;98658.91;4990461;28;20221;-74
2022/11/04 04:09:22;;;;;;;1.15;0.90;;;;;;;11.19;73.03;98663.31;4995204;28;20215;-74
2022/11/04 04:11:48;;;;;;;0.90;0.90;;;;;;;11.18;73.26;98664.28;4994723;28;20199;-74
2022/11/04 04:14:49;;;;;;;1.53;1.00;;;;;;;11.18;73.15;98673.94;4996461;28;20762;-74
2022/11/04 04:17:22;;;;;;;4.43;1.10;;;;;;;11.15;73.12;98675.06;4984445;28;20239;-74
2022/11/04 04:20:02;;;;;;;3.42;0.95;;;;;;;11.13;73.14;98682.22;4991784;28;20229;-74
2022/11/04 04:22:39;;;;;;;1.30;0.90;;;;;;;11.12;73.23;98677.09;4994001;28;20536;-74
2022/11/04 04:27:56;;;;;;;0.88;0.80;;;;;;;11.11;73.07;98668.38;4995107;28;20220;-74
2022/11/04 04:30:21;;;;;;;1.58;0.95;;;;;;;11.08;72.90;98666.81;5001622;28;20219;-74
2022/11/04 04:33:08;;;;;;;2.07;1.00;;;;;;;11.08;72.88;98668.63;5000334;28;20209;-74
2022/11/04 04:35:45;;;;;;;1.30;0.90;;;;;;;11.08;72.58;98671.25;4998424;28;20216;-74
2022/11/04 04:46:53;;;;;;;1.63;0.73;;;;;;;11.10;72.09;98658.81;5305322;23;21020;-91
2022/11/04 04:53:05;;;;;;;1.08;0.88;;;;;;;11.13;71.58;98655.94;4965503;28;20767;-93
2022/11/04 04:55:32;;;;;;;1.85;0.85;;;;;;;11.14;71.12;98651.53;4972834;28;20398;-91
2022/11/04 04:58:23;;;;;;;1.20;0.70;;;;;;;11.13;71.05;98639.34;4960076;28;20206;-92
2022/11/04 05:01:07;;;;;;;3.08;0.80;;;;;;;11.14;70.78;98628.69;4972669;28;20349;-93
2022/11/04 05:04:03;;;;;;;3.75;0.90;;;;;;;11.17;70.66;98619.72;4971126;28;20390;-94
2022/11/04 05:11:19;;;;;;;1.58;0.85;;;;;;;11.15;70.16;98600.63;4859370;29;20233;-94
2022/11/04 05:14:52;;;;;;;1.10;1.00;;;;;;;11.13;70.10;98598.13;4829471;29;20226;-95
2022/11/04 05:18:28;;;;;;;;;;;;;;;;;;;;;
2022/11/04 05:27:43;;;;;;;2.97;0.95;;;;;;;11.10;69.63;98598.38;4867208;29;20243;-78
2022/11/04 05:30:09;;;;;;;0.80;0.80;;;;;;;11.09;69.40;98594.06;4866721;29;20215;-78
2022/11/04 05:32:35;;;;;;;1.30;1.00;;;;;;;11.10;69.21;98592.25;4866920;29;20212;-78
2022/11/04 05:35:00;;;;;;;1.30;1.10;;;;;;;11.12;69.24;98585.94;4860123;29;20482;-78
2022/11/04 05:37:26;;;;;;;1.10;1.00;;;;;;;11.11;68.94;98581.66;4862301;29;20702;-78
2022/11/04 05:39:51;;;;;;;2.07;1.20;;;;;;;11.10;69.12;98582.63;4865811;29;20865;-79
2022/11/04 05:42:17;;;;;;;1.77;1.10;;;;;;;11.10;68.82;98590.50;4863230;29;20275;-79
2022/11/04 05:44:43;;;;;;;2.77;1.07;;;;;;;11.08;68.83;98595.88;4863566;29;20472;-78
2022/11/04 05:47:08;;;;;;;1.50;1.10;;;;;;;11.09;68.52;98596.69;4861900;29;20235;-78
2022/11/04 05:49:34;;;;;;;2.20;1.00;;;;;;;11.07;68.66;98588.94;4863736;29;20215;-78
2022/11/04 05:51:59;;;;;;;1.60;1.50;;;;;;;11.04;68.73;98577.84;4862154;29;20204;-78
2022/11/04 05:54:25;;;;;;;1.30;1.00;;;;;;;11.01;68.87;98578.09;4865199;29;20633;-78
2022/11/04 05:56:51;;;;;;;2.67;1.50;;;;;;;11.00;68.71;98577.25;4863730;29;20230;-79
2022/11/04 05:59:17;;;;;;;1.90;1.52;;;;;;;10.99;68.83;98566.88;4862387;29;20472;-79
2022/11/04 06:01:43;;;;;;;1.73;1.40;;;;;;;10.97;68.84;98569.63;4866544;29;20337;-78
2022/11/04 06:04:14;;;;;;;1.60;1.20;;;;;;;10.96;68.88;98562.69;4867088;29;20505;-78
2022/11/04 06:06:39;;;;;;;2.88;1.35;;;;;;;10.94;68.92;98564.63;4867359;29;20283;-79
2022/11/04 06:09:05;;;;;;;5.53;3.17;;;;;;;10.92;68.99;98563.09;4866216;29;20238;-79
2022/11/04 06:11:36;;;;;;;2.63;1.47;;;;;;;10.91;69.06;98561.41;4864514;29;20243;-78
2022/11/04 06:14:02;;;;;;;5.03;2.17;;;;;;;10.91;68.83;98569.28;4871411;29;20463;-79
2022/11/04 06:16:28;;;;;;;5.75;2.30;;;;;;;10.89;69.00;98564.19;4864183;29;20756;-79
2022/11/04 06:18:54;;;;;;;8.32;7.63;;;;;;;10.89;69.16;98563.34;4867827;29;20204;-79
2022/11/04 06:21:32;;;;;;;5.05;3.45;;;;;;;10.87;69.03;98568.72;4865433;29;20245;-79
2022/11/04 06:23:59;;;;;;;6.22;2.45;;;;;;;10.85;69.02;98568.84;4867958;29;20219;-78
2022/11/04 06:26:27;;;;;;;5.88;2.95;;;;;;;10.86;69.14;98572.31;4857366;29;20243;-79
2022/11/04 06:28:52;;;;;;;3.63;2.45;;;;;;;10.83;68.96;98573.41;4866933;29;20259;-79
2022/11/04 06:31:19;;;;;;;3.23;2.77;;;;;;;10.79;69.12;98569.34;4864043;29;20610;-79
2022/11/04 06:33:44;;;;;;;5.20;2.90;;;;;;;10.77;69.44;98580.91;4858189;29;20774;-79
2022/11/04 06:36:13;;;;;;;5.83;2.40;;;;;;;10.74;69.62;98589.88;4859846;29;20233;-79
2022/11/04 06:38:39;;;;;;;2.80;2.30;;;;;;;10.72;69.80;98581.31;4858826;29;20793;-79
2022/11/04 06:41:06;;;;;;;3.50;1.65;;;;;;;10.73;70.05;98588.22;4863503;29;20208;-79
2022/11/04 06:43:32;;;;;;;1.55;1.45;;;;;;;10.71;69.83;98592.75;4855662;29;20212;-79
2022/11/04 06:46:00;;;;;;;2.60;1.08;;;;;;;10.67;69.87;98596.59;4861073;29;20310;-79
2022/11/04 06:48:29;;;;;;;2.05;1.02;;;;;;;10.64;70.08;98607.34;4857463;29;20592;-79
2022/11/04 06:51:06;;;;;;;3.08;1.30;;;;;;;10.59;70.30;98605.09;4855134;29;20207;-79
2022/11/04 06:53:32;;;;;;;1.85;1.30;;;;;;;10.57;70.42;98611.41;4860064;29;20330;-79
2022/11/04 06:56:02;;;;;;;4.37;2.13;;;;;;;10.55;70.23;98615.94;4856309;29;20853;-78
2022/11/04 06:58:28;;;;;;;8.45;2.25;;;;;;;10.53;70.40;98604.72;4857841;29;20203;-79
2022/11/04 07:00:53;;;;;;;4.70;2.73;;;;;;;10.54;70.46;98606.41;4858659;29;20210;-79
2022/11/04 07:03:19;;;;;;;5.60;2.40;;;;;;;10.56;70.51;98601.88;4854133;29;20291;-79
2022/11/04 07:05:44;;;;;;;8.53;2.40;;;;;;;10.58;70.54;98595.53;4861945;29;20227;-79
2022/11/04 07:08:10;;;;;;;3.53;1.70;;;;;;;10.62;70.33;98593.50;4861340;29;20335;-80
2022/11/04 07:10:35;;;;;;;1.87;1.47;;;;;;;10.66;70.43;98594.91;4859493;29;20249;-79
2022/11/04 07:13:01;;;;;;;3.47;1.33;;;;;;;10.70;70.51;98592.91;4861747;29;20407;-80
2022/11/04 07:15:26;;;;;;;2.17;1.93;;;;;;;10.74;70.20;98599.56;4864718;29;20231;-79
2022/11/04 07:17:52;;;;;;;3.10;1.93;;;;;;;10.76;70.27;98595.84;4863297;29;20210;-79
2022/11/04 07:20:17;;;;;;;11.97;2.03;;;;;;;10.80;70.35;98591.19;4862888;29;20466;-80
2022/11/04 07:22:42;;;;;;;2.70;2.00;;;;;;;10.80;70.08;98592.03;4861351;29;20231;-79
2022/11/04 07:25:08;;;;;;;4.60;2.07;;;;;;;10.82;69.92;98597.16;4860019;29;20271;-79
2022/11/04 07:27:33;;;;;;;3.90;1.40;;;;;;;10.85;69.88;98584.63;4859955;29;20937;-79
2022/11/04 07:29:59;;;;;;;3.27;1.53;;;;;;;10.92;69.63;98589.38;4860168;29;21416;-79
2022/11/04 07:32:27;;;;;;;1.63;1.20;;;;;;;10.98;69.56;98594.94;4864260;29;20690;-79
2022/11/04 07:34:53;;;;;;;2.90;1.53;;;;;;;11.03;69.40;98597.19;4854538;29;20252;-79
2022/11/04 07:37:18;;;;;;;1.93;1.30;;;;;;;11.07;69.22;98598.59;4859323;29;20461;-80
2022/11/04 07:39:44;;;;;;;3.97;2.50;;;;;;;11.12;69.09;98593.81;4860555;29;20211;-79
2022/11/04 07:42:09;;;;;;;3.13;1.90;;;;;;;11.17;68.81;98585.56;4861279;29;20766;-80
2022/11/04 07:44:34;;;;;;;2.00;1.73;;;;;;;11.22;68.57;98589.47;4861038;29;20955;-79
2022/11/04 07:47:00;;;;;;;2.43;2.23;;;;;;;11.27;68.37;98587.31;4857154;29;20581;-79
2022/11/04 07:49:25;;;;;;;2.10;1.53;;;;;;;11.35;68.26;98585.84;4861976;29;20275;-79
2022/11/04 07:51:51;;;;;;;2.70;2.07;;;;;;;11.42;68.03;98589.59;4860806;29;20314;-80
2022/11/04 07:54:16;;;;;;;4.17;2.70;;;;;;;11.50;67.84;98585.41;4860161;29;20287;-79
2022/11/04 07:56:42;;;;;;;2.67;2.30;;;;;;;11.58;67.30;98583.91;4863228;29;20227;-79
2022/11/04 07:59:07;;;;;;;3.23;2.60;;;;;;;11.65;67.02;98574.53;4857809;29;20352;-79
2022/11/04 08:01:33;;;;;;;5.50;3.00;;;;;;;11.71;66.55;98574.84;4863054;29;20814;-78
2022/11/04 08:03:59;;;;;;;7.25;1.85;;;;;;;11.79;66.42;98571.56;4850724;29;20251;-79
2022/11/04 08:06:24;;;;;;;2.53;1.60;;;;;;;11.87;66.23;98560.41;4860469;29;20377;-78
2022/11/04 08:08:52;;;;;;;3.05;1.55;;;;;;;11.93;65.79;98555.44;4858065;29;20338;-79
2022/11/04 08:11:22;;;;;;;3.75;1.33;;;;;;;11.95;65.34;98547.44;4853214;29;20248;-79
2022/11/04 08:13:48;;;;;;;1.30;1.20;;;;;;;11.97;65.02;98549.94;4856666;29;20214;-80
2022/11/04 08:16:17;;;;;;;2.50;1.00;;;;;;;12.00;64.63;98552.31;4855573;29;20239;-79
2022/11/04 08:18:43;;;;;;;4.47;1.42;;;;;;;12.01;64.55;98544.25;4855671;29;20654;-79
2022/11/04 08:21:10;;;;;;;3.65;1.17;;;;;;;12.04;64.36;98549.25;4854739;29;20270;-79
2022/11/04 08:23:36;;;;;;;5.25;2.20;;;;;;;12.07;64.34;98541.13;4853088;29;20720;-79
2022/11/04 08:26:06;;;;;;;5.93;2.13;;;;;;;12.12;64.22;98538.06;4858456;29;20390;-79
2022/11/04 08:28:31;;;;;;;5.15;2.50;;;;;;;12.12;63.93;98538.94;4853015;29;20981;-79
2022/11/04 08:31:00;;;;;;;12.70;5.10;;;;;;;12.13;63.92;98539.75;4855150;29;20202;-79
2022/11/04 08:33:27;;;;;;;16.02;6.10;;;;;;;12.13;63.87;98545.84;4858211;29;20207;-79
2022/11/04 08:35:55;;;;;;;13.50;8.02;;;;;;;12.13;63.71;98545.03;4860712;29;20224;-80
2022/11/04 08:38:20;;;;;;;11.80;4.55;;;;;;;12.10;63.43;98551.38;4856031;29;20433;-80
2022/11/04 08:40:46;;;;;;;9.47;4.30;;;;;;;12.06;63.53;98552.59;4856010;29;20500;-80
2022/11/04 08:43:12;;;;;;;8.33;6.40;;;;;;;12.07;63.58;98550.78;4859521;29;20326;-80
2022/11/04 08:45:43;;;;;;;32.83;11.87;;;;;;;12.09;63.50;98552.34;4853807;29;20231;-80
2022/11/04 08:48:09;;;;;;;10.30;6.15;;;;;;;12.11;63.31;98557.47;4858639;29;20256;-80
2022/11/04 08:50:34;;;;;;;7.25;2.85;;;;;;;12.17;63.16;98557.75;4855375;29;20207;-79
2022/11/04 08:53:00;;;;;;;4.23;3.10;;;;;;;12.23;63.07;98560.84;4853971;29;20218;-80
2022/11/04 08:55:31;;;;;;;1.50;1.37;;;;;;;12.30;62.64;98564.59;4857290;29;20479;-80
2022/11/04 08:57:58;;;;;;;5.50;3.88;;;;;;;12.39;62.40;98562.00;4858461;29;20462;-81
2022/11/04 09:00:24;;;;;;;6.80;2.88;;;;;;;12.83;61.59;98559.03;4857314;29;20220;-80
2022/11/04 09:02:49;;;;;;;4.27;1.47;;;;;;;13.43;59.96;98551.81;4859052;29;20219;-80
2022/11/04 09:05:15;;;;;;;10.37;2.60;;;;;;;14.04;58.26;98552.31;4860653;29;20796;-79
2022/11/04 09:07:41;;;;;;;12.23;5.83;;;;;;;14.53;56.79;98555.59;4860110;29;20231;-79
2022/11/04 09:10:08;;;;;;;12.98;6.10;;;;;;;14.75;55.85;98555.16;4828542;29;20411;-81
2022/11/04 09:12:33;;;;;;;3.67;1.90;;;;;;;14.71;55.22;98558.25;4845577;29;20209;-81
2022/11/04 09:14:59;;;;;;;4.30;2.10;;;;;;;14.62;55.35;98559.16;4848496;29;20272;-79
2022/11/04 09:17:24;;;;;;;3.53;1.20;;;;;;;14.50;55.70;98555.81;4842771;29;20208;-81
2022/11/04 09:19:50;;;;;;;1.80;1.20;;;;;;;14.36;56.17;98560.63;4843620;29;20212;-79
2022/11/04 09:22:16;;;;;;;7.43;2.13;;;;;;;14.25;56.05;98563.47;4842417;29;20804;-79
2022/11/04 09:24:42;;;;;;;2.40;2.20;;;;;;;14.08;56.10;98557.16;4845113;29;20796;-79
2022/11/04 09:27:07;;;;;;;2.40;1.40;;;;;;;13.91;56.60;98564.03;4841626;29;20247;-79
2022/11/04 09:29:35;;;;;;;2.37;1.30;;;;;;;13.78;56.74;98566.16;4848055;29;20647;-78
2022/11/04 09:32:03;;;;;;;0.95;0.85;;;;;;;13.65;57.29;98565.66;4847991;29;20395;-78
2022/11/04 09:34:29;;;;;;;2.15;1.25;;;;;;;13.53;57.48;98572.91;4843575;29;20247;-79
2022/11/04 09:36:56;;;;;;;2.50;1.03;;;;;;;13.42;57.78;98565.97;4849473;29;20228;-78
2022/11/04 09:39:22;;;;;;;3.10;2.10;;;;;;;13.36;58.03;98566.53;4846030;29;20813;-79
2022/11/04 09:42:00;;;;;;;23.20;8.23;;;;;;;13.32;58.40;98565.16;4847038;29;20682;-78
2022/11/04 09:44:49;;;;;;;25.55;9.50;;;;;;;13.34;58.61;98565.00;4844344;29;20703;-79
2022/11/04 09:47:16;;;;;;;6.20;2.30;;;;;;;13.33;58.72;98572.06;4848252;29;20232;-79
2022/11/04 09:49:46;;;;;;;9.75;4.07;;;;;;;13.34;58.79;98570.28;4847202;29;20248;-79
2022/11/04 09:52:20;;;;;;;4.30;2.40;;;;;;;13.28;58.77;98569.88;4846072;29;20226;-79
2022/11/04 09:55:00;;;;;;;2.25;1.45;;;;;;;13.25;59.08;98571.91;4846449;29;20208;-78
2022/11/04 09:57:26;;;;;;;13.82;6.18;;;;;;;13.20;59.16;98567.06;4845982;29;20224;-78
2022/11/04 09:59:53;;;;;;;2.23;1.20;;;;;;;13.19;59.42;98570.69;4845298;29;20272;-79
2022/11/04 10:02:30;;;;;;;9.25;3.97;;;;;;;13.20;59.28;98566.22;4834714;29;20521;-79
2022/11/04 10:05:14;;;;;;;51.15;23.60;;;;;;;13.25;59.40;98562.19;4839622;29;20260;-78
2022/11/04 10:07:55;;;;;;;9.65;5.30;;;;;;;13.31;59.50;98567.91;4837199;29;20247;-78
2022/11/04 10:10:25;;;;;;;3.88;1.95;;;;;;;13.36;59.38;98566.53;4838077;29;20829;-79
2022/11/04 10:13:13;;;;;;;8.18;4.88;;;;;;;13.44;59.33;98563.19;4839409;29;20201;-78
2022/11/04 10:15:38;;;;;;;3.50;1.95;;;;;;;13.49;59.33;98560.97;4836434;29;20240;-79
2022/11/04 10:18:07;;;;;;;3.33;2.30;;;;;;;13.52;59.17;98565.94;4837116;29;20196;-78
2022/11/04 10:20:32;;;;;;;5.32;3.38;;;;;;;13.58;59.06;98561.91;4847019;29;20227;-79
2022/11/04 10:23:07;;;;;;;2.50;2.10;;;;;;;13.59;57.32;98559.13;4838144;29;20255;-79
2022/11/04 10:25:39;;;;;;;2.35;1.60;;;;;;;13.61;57.42;98561.63;4845927;29;20642;-81
2022/11/04 10:28:11;;;;;;;4.03;1.88;;;;;;;13.63;57.67;98557.84;4845487;29;20441;-78
2022/11/04 10:30:40;;;;;;;2.30;1.20;;;;;;;13.67;57.28;98561.06;4845415;29;20355;-78
2022/11/04 10:33:23;;;;;;;2.53;1.52;;;;;;;13.70;56.62;98561.59;4841017;29;20212;-78
2022/11/04 10:35:56;;;;;;;1.67;1.40;;;;;;;13.71;56.80;98562.44;4849562;29;20751;-78
2022/11/04 10:38:28;;;;;;;6.68;5.15;;;;;;;13.70;57.05;98564.25;4847481;29;20243;-79
2022/11/04 10:40:54;;;;;;;2.25;1.38;;;;;;;13.73;56.96;98560.47;4835340;29;20605;-78
2022/11/04 10:43:31;;;;;;;2.72;1.88;;;;;;;13.72;57.30;98554.38;4847102;29;20492;-78
2022/11/04 10:46:31;;;;;;;4.40;1.80;;;;;;;13.70;57.58;98558.97;4870127;23;20266;-76
2022/11/04 10:49:03;;;;;;;2.80;1.15;;;;;;;13.71;57.80;98563.25;4899054;29;20266;-75
2022/11/04 10:51:28;;;;;;;2.55;1.48;;;;;;;13.71;57.90;98557.97;4907101;28;20218;-75
2022/11/04 10:53:58;;;;;;;1.70;1.60;;;;;;;13.75;57.98;98561.19;4914472;28;20289;-76
2022/11/04 10:56:41;;;;;;;1.90;1.45;;;;;;;13.76;57.90;98560.19;4912716;29;20281;-77
2022/11/04 10:59:41;;;;;;;2.28;0.93;;;;;;;13.79;57.87;98557.25;4905864;29;20261;-76
2022/11/04 11:02:06;;;;;;;1.58;0.98;;;;;;;13.83;57.97;98549.91;4907546;29;20301;-75
2022/11/04 11:04:39;;;;;;;1.97;0.97;;;;;;;13.86;57.94;98557.53;4907805;29;20733;-75
2022/11/04 11:07:08;;;;;;;1.20;1.00;;;;;;;13.88;57.91;98551.13;4909490;29;20455;-75
2022/11/04 11:09:41;;;;;;;4.25;1.10;;;;;;;13.93;57.66;98550.69;4907865;29;20220;-75
2022/11/04 11:12:13;;;;;;;2.00;1.25;;;;;;;13.95;57.52;98546.09;4907971;29;20745;-75
2022/11/04 11:14:40;;;;;;;2.67;1.30;;;;;;;14.00;57.49;98554.41;4905390;29;20217;-75
2022/11/04 11:17:14;;;;;;;2.80;1.00;;;;;;;14.06;57.48;98547.72;4903754;29;20234;-75
2022/11/04 11:19:52;;;;;;;4.10;1.00;;;;;;;14.11;57.63;98545.47;4910662;29;20229;-75
2022/11/04 11:22:30;;;;;;;2.28;0.90;;;;;;;14.14;57.16;98540.72;4906436;29;20230;-75
2022/11/04 11:25:23;;;;;;;5.43;2.40;;;;;;;14.15;56.97;98541.59;4911676;29;20712;-75
2022/11/04 11:28:05;;;;;;;1.77;1.10;;;;;;;14.16;56.99;98545.88;4910203;29;20243;-75
2022/11/04 11:30:54;;;;;;;4.30;1.20;;;;;;;14.17;56.17;98545.72;4908977;29;20226;-74
2022/11/04 11:33:47;;;;;;;2.47;1.50;;;;;;;14.16;56.11;98549.34;4899001;29;20249;-75
2022/11/04 11:36:29;;;;;;;1.70;1.00;;;;;;;14.15;56.41;98546.88;4905965;29;20234;-75
2022/11/04 11:39:02;;;;;;;2.83;1.70;;;;;;;14.12;56.99;98540.06;4905191;29;20201;-76
2022/11/04 11:41:32;;;;;;;5.18;2.92;;;;;;;14.11;56.77;98537.56;4897434;29;20209;-75
2022/11/04 11:44:22;;;;;;;6.07;2.90;;;;;;;14.10;56.95;98538.56;4910757;29;20824;-74
2022/11/04 11:46:54;;;;;;;2.55;1.63;;;;;;;14.10;57.08;98539.38;4907546;29;20249;-74
2022/11/04 11:49:27;;;;;;;5.90;1.83;;;;;;;14.09;57.22;98540.34;4905876;29;20348;-74
2022/11/04 11:51:54;;;;;;;4.13;1.30;;;;;;;14.11;56.68;98541.03;4899783;29;20211;-75
2022/11/04 11:54:32;;;;;;;2.17;1.20;;;;;;;14.11;56.69;98535.75;4908623;29;20568;-75
2022/11/04 11:57:48;;;;;;;2.15;1.15;;;;;;;14.10;56.97;98539.38;4910268;29;20229;-75
2022/11/04 12:00:17;;;;;;;1.60;1.30;;;;;;;14.10;57.08;98539.38;4884116;29;20969;-76
2022/11/04 12:02:59;;;;;;;3.25;1.50;;;;;;;14.12;56.82;98536.56;4905205;29;20202;-76
2022/11/04 12:05:54;;;;;;;1.92;1.35;;;;;;;14.11;56.95;98542.84;4909387;29;20214;-75
2022/11/04 12:08:43;;;;;;;2.00;1.30;;;;;;;14.11;57.04;98540.19;4908643;29;20237;-76
2022/11/04 12:11:17;;;;;;;2.83;1.30;;;;;;;14.09;57.11;98542.16;4904434;29;20230;-75
2022/11/04 12:13:48;;;;;;;3.65;1.55;;;;;;;14.06;57.21;98542.44;4910234;29;20543;-77
2022/11/04 12:16:32;;;;;;;2.53;1.30;;;;;;;14.03;57.68;98538.28;4909033;29;20648;-74
2022/11/04 12:19:00;;;;;;;2.72;1.42;;;;;;;14.01;58.17;98545.50;4909071;29;20212;-75
2022/11/04 12:21:34;;;;;;;3.55;2.10;;;;;;;13.99;58.33;98541.34;4905668;29;20279;-74
2022/11/04 12:24:30;;;;;;;6.13;2.90;;;;;;;14.00;58.27;98543.84;4909185;29;20232;-74
2022/11/04 12:26:59;;;;;;;7.88;4.10;;;;;;;14.06;58.47;98547.72;4907427;29;20333;-76
2022/11/04 12:29:38;;;;;;;5.75;3.85;;;;;;;14.11;58.43;98537.56;4910586;29;20509;-77
2022/11/04 12:32:18;;;;;;;5.22;2.40;;;;;;;14.17;58.62;98544.88;4909482;29;20301;-75
2022/11/04 12:35:09;;;;;;;3.03;1.30;;;;;;;14.21;58.91;98543.63;4909064;29;20742;-75
2022/11/04 12:37:45;;;;;;;8.00;4.38;;;;;;;14.29;58.52;98545.53;4905509;29;20322;-74
2022/11/04 12:40:20;;;;;;;10.30;5.80;;;;;;;14.30;59.00;98549.84;4902586;29;20198;-75